createdAt,value
2023-04-07T00:01:31.506Z,6.71
2023-04-07T00:03:58.617Z,6.93
2023-04-07T00:06:25.660Z,7.06
2023-04-07T00:08:52.241Z,7.06
2023-04-07T00:11:18.883Z,6.56
2023-04-07T00:13:45.583Z,7.02
2023-04-07T00:16:12.277Z,7.01
2023-04-07T00:18:39.340Z,7.06
2023-04-07T00:21:06.078Z,6.94
2023-04-07T00:23:32.778Z,7.06
2023-04-07T00:25:59.453Z,7.08
2023-04-07T00:28:26.048Z,7.21
2023-04-07T00:30:52.624Z,7.09
2023-04-07T00:33:19.411Z,7.23
2023-04-07T00:35:46.130Z,7.30
2023-04-07T00:38:13.159Z,7.25
2023-04-07T00:40:39.794Z,6.96
2023-04-07T00:43:06.618Z,6.76
2023-04-07T00:45:33.359Z,6.59
2023-04-07T00:48:00.292Z,6.52
2023-04-07T00:50:27.307Z,6.50
2023-04-07T00:52:54.973Z,6.33
2023-04-07T00:55:21.604Z,6.47
2023-04-07T00:57:48.690Z,6.40
2023-04-07T01:00:15.948Z,6.14
2023-04-07T01:03:01.894Z,6.10
2023-04-07T01:05:42.442Z,6.23
2023-04-07T01:08:21.299Z,5.99
2023-04-07T01:11:06.921Z,6.00
2023-04-07T01:13:38.757Z,5.82
2023-04-07T01:16:24.568Z,5.68
2023-04-07T01:18:55.993Z,5.69
2023-04-07T01:21:28.640Z,5.37
2023-04-07T01:24:12.095Z,5.43
2023-04-07T01:26:40.027Z,5.51
2023-04-07T01:29:37.196Z,5.61
2023-04-07T01:32:08.100Z,5.50
2023-04-07T01:34:36.921Z,5.57
2023-04-07T01:37:05.136Z,5.49
2023-04-07T01:39:34.482Z,5.59
2023-04-07T01:42:02.445Z,5.66
2023-04-07T01:44:30.201Z,5.66
2023-04-07T01:46:57.453Z,5.65
2023-04-07T01:49:27.208Z,5.55
2023-04-07T01:51:54.836Z,5.51
2023-04-07T01:54:22.074Z,5.41
2023-04-07T01:56:48.695Z,5.39
2023-04-07T01:59:15.926Z,5.39
2023-04-07T02:01:42.744Z,5.36
2023-04-07T02:04:18.516Z,5.31
2023-04-07T02:06:54.450Z,5.24
2023-04-07T02:09:31.854Z,5.40
2023-04-07T02:12:02.019Z,5.23
2023-04-07T02:14:34.039Z,5.19
2023-04-07T02:17:06.093Z,5.11
2023-04-07T02:19:36.025Z,5.28
2023-04-07T02:22:07.020Z,5.30
2023-04-07T02:24:33.690Z,5.33
2023-04-07T02:27:02.054Z,5.53
2023-04-07T02:29:28.866Z,5.50
2023-04-07T02:31:56.636Z,5.45
2023-04-07T02:34:23.458Z,5.34
2023-04-07T02:36:50.258Z,5.29
2023-04-07T02:39:16.974Z,5.34
2023-04-07T02:41:43.722Z,5.41
2023-04-07T02:44:10.407Z,5.15
2023-04-07T02:46:37.133Z,4.89
2023-04-07T02:49:03.917Z,4.75
2023-04-07T02:51:31.312Z,4.49
2023-04-07T02:53:58.048Z,4.61
2023-04-07T02:56:24.755Z,4.61
2023-04-07T02:58:51.332Z,4.60
2023-04-07T03:01:18.477Z,4.52
2023-04-07T03:03:47.630Z,4.36
2023-04-07T03:06:18.671Z,4.28
2023-04-07T03:09:06.590Z,4.42
2023-04-07T03:11:33.580Z,4.34
2023-04-07T03:14:01.011Z,4.34
2023-04-07T03:16:29.702Z,4.31
2023-04-07T03:19:22.113Z,4.30
2023-04-07T03:21:50.712Z,4.28
2023-04-07T03:24:18.347Z,4.33
2023-04-07T03:26:46.405Z,4.27
2023-04-07T03:29:22.217Z,4.33
2023-04-07T03:31:48.902Z,4.42
2023-04-07T03:34:19.309Z,4.49
2023-04-07T03:36:45.953Z,4.52
2023-04-07T03:39:13.113Z,4.56
2023-04-07T03:41:40.056Z,4.42
2023-04-07T03:44:07.050Z,4.44
2023-04-07T03:46:36.216Z,4.55
2023-04-07T03:49:02.989Z,4.48
2023-04-07T03:51:32.924Z,4.34
2023-04-07T03:54:00.651Z,4.24
2023-04-07T03:56:32.230Z,4.33
2023-04-07T03:58:59.487Z,4.22
2023-04-07T04:01:30.468Z,4.32
2023-04-07T04:04:05.834Z,4.28
2023-04-07T04:06:32.639Z,4.33
2023-04-07T04:09:07.919Z,4.29
2023-04-07T04:11:38.427Z,4.30
2023-04-07T04:14:06.543Z,4.31
2023-04-07T04:16:35.811Z,4.33
2023-04-07T04:19:08.038Z,4.33
2023-04-07T04:21:35.111Z,4.40
2023-04-07T04:24:02.327Z,4.46
2023-04-07T04:26:30.187Z,4.45
2023-04-07T04:29:03.416Z,4.02
2023-04-07T04:31:30.437Z,4.30
2023-04-07T04:33:57.409Z,4.34
2023-04-07T04:36:24.836Z,4.32
2023-04-07T04:38:56.920Z,4.11
2023-04-07T04:41:23.760Z,4.18
2023-04-07T04:43:51.366Z,4.33
2023-04-07T04:46:22.168Z,4.24
2023-04-07T04:48:49.699Z,4.18
2023-04-07T04:51:17.736Z,4.19
2023-04-07T04:53:48.061Z,4.02
2023-04-07T04:56:14.850Z,3.95
2023-04-07T04:58:48.275Z,3.84
2023-04-07T05:01:25.736Z,3.94
2023-04-07T05:04:00.739Z,3.82
2023-04-07T05:06:29.584Z,3.83
2023-04-07T05:09:00.633Z,3.80
2023-04-07T05:11:32.764Z,3.73
2023-04-07T05:13:59.507Z,3.59
2023-04-07T05:16:28.405Z,3.74
2023-04-07T05:18:55.836Z,3.79
2023-04-07T05:21:26.770Z,3.86
2023-04-07T05:23:56.250Z,3.77
2023-04-07T05:26:24.215Z,3.60
2023-04-07T05:28:51.677Z,3.82
2023-04-07T05:31:21.845Z,3.73
2023-04-07T05:33:52.318Z,3.63
2023-04-07T05:36:22.583Z,3.80
2023-04-07T05:38:53.581Z,3.86
2023-04-07T05:41:21.185Z,3.87
2023-04-07T05:43:47.864Z,4.01
2023-04-07T05:46:16.893Z,3.96
2023-04-07T05:48:56.625Z,4.00
2023-04-07T05:51:26.316Z,4.02
2023-04-07T05:53:54.990Z,3.94
2023-04-07T05:56:24.740Z,3.81
2023-04-07T05:58:51.340Z,4.09
2023-04-07T06:01:19.065Z,4.04
2023-04-07T06:03:45.840Z,4.17
2023-04-07T06:06:24.491Z,4.05
2023-04-07T06:08:51.222Z,4.51
2023-04-07T06:11:17.902Z,4.54
2023-04-07T06:13:44.595Z,4.63
2023-04-07T06:16:11.464Z,4.71
2023-04-07T06:18:38.235Z,4.83
2023-04-07T06:21:06.614Z,5.01
2023-04-07T06:23:33.159Z,5.09
2023-04-07T06:25:59.792Z,5.11
2023-04-07T06:28:26.447Z,5.12
2023-04-07T06:30:56.184Z,5.16
2023-04-07T06:33:25.754Z,5.32
2023-04-07T06:35:52.787Z,5.25
2023-04-07T06:38:19.692Z,5.38
2023-04-07T06:40:46.364Z,5.41
2023-04-07T06:43:12.921Z,5.60
2023-04-07T06:45:43.971Z,5.33
2023-04-07T06:48:10.975Z,5.84
2023-04-07T06:50:40.834Z,5.68
2023-04-07T06:53:07.418Z,6.06
2023-04-07T06:55:33.995Z,6.06
2023-04-07T06:58:00.574Z,6.36
2023-04-07T07:00:30.100Z,6.26
2023-04-07T07:02:57.266Z,6.61
2023-04-07T07:05:24.204Z,6.78
2023-04-07T07:07:51.543Z,7.15
2023-04-07T07:10:20.407Z,7.48
2023-04-07T07:12:47.083Z,7.78
2023-04-07T07:15:13.844Z,8.18
2023-04-07T07:17:40.724Z,8.56
2023-04-07T07:20:08.019Z,8.75
2023-04-07T07:22:34.703Z,9.27
2023-04-07T07:25:01.380Z,9.67
2023-04-07T07:27:28.060Z,10.08
2023-04-07T07:29:54.664Z,10.45
2023-04-07T07:32:21.428Z,10.88
2023-04-07T07:34:47.988Z,11.32
2023-04-07T07:37:14.894Z,11.70
2023-04-07T07:39:41.516Z,12.02
2023-04-07T07:42:08.215Z,12.29
2023-04-07T07:44:34.860Z,12.66
2023-04-07T07:47:01.504Z,13.07
2023-04-07T07:49:28.112Z,13.24
2023-04-07T07:51:54.708Z,13.67
2023-04-07T07:54:21.342Z,13.91
2023-04-07T07:56:47.910Z,14.17
2023-04-07T07:59:16.066Z,14.31
2023-04-07T08:01:43.231Z,14.47
2023-04-07T08:04:10.035Z,14.66
2023-04-07T08:06:37.584Z,14.53
2023-04-07T08:09:04.292Z,14.83
2023-04-07T08:11:30.941Z,15.12
2023-04-07T08:13:57.544Z,15.21
2023-04-07T08:16:24.277Z,15.48
2023-04-07T08:18:54.050Z,16.00
2023-04-07T08:21:21.097Z,16.13
2023-04-07T08:23:48.172Z,16.33
2023-04-07T08:26:15.289Z,16.31
2023-04-07T08:28:42.846Z,15.94
2023-04-07T08:31:09.544Z,16.60
2023-04-07T08:33:36.203Z,16.59
2023-04-07T08:36:02.926Z,16.77
2023-04-07T08:38:29.696Z,17.05
2023-04-07T08:41:03.037Z,17.38
2023-04-07T08:43:30.219Z,17.68
2023-04-07T08:45:58.114Z,17.77
2023-04-07T08:48:27.104Z,17.97
2023-04-07T08:50:54.642Z,17.95
2023-04-07T08:53:28.164Z,17.93
2023-04-07T08:55:56.891Z,18.38
2023-04-07T08:58:23.886Z,18.44
2023-04-07T09:00:51.607Z,18.66
2023-04-07T09:03:19.493Z,18.73
2023-04-07T09:05:46.485Z,18.76
2023-04-07T09:08:13.178Z,19.08
2023-04-07T09:10:39.789Z,18.72
2023-04-07T09:13:06.749Z,18.60
2023-04-07T09:15:38.534Z,18.49
2023-04-07T09:18:06.534Z,18.52
2023-04-07T09:20:58.227Z,19.24
2023-04-07T09:23:29.212Z,19.73
2023-04-07T09:25:56.047Z,19.24
2023-04-07T09:28:22.921Z,19.09
2023-04-07T09:30:54.340Z,19.78
2023-04-07T09:33:30.637Z,20.68
2023-04-07T09:35:57.636Z,20.52
2023-04-07T09:38:32.446Z,21.29
2023-04-07T09:41:08.345Z,21.14
2023-04-07T09:43:37.856Z,21.69
2023-04-07T09:46:13.378Z,21.56
2023-04-07T09:48:40.910Z,21.17
2023-04-07T09:51:15.991Z,21.09
2023-04-07T09:53:52.556Z,20.68
2023-04-07T09:56:23.944Z,20.63
2023-04-07T09:58:53.833Z,20.34
2023-04-07T10:01:21.945Z,20.04
2023-04-07T10:03:49.215Z,19.25
2023-04-07T10:06:16.817Z,19.14
2023-04-07T10:08:43.935Z,19.18
2023-04-07T10:11:11.188Z,19.65
2023-04-07T10:13:39.403Z,19.83
2023-04-07T10:16:07.746Z,20.26
2023-04-07T10:18:37.165Z,20.44
2023-04-07T10:21:07.761Z,20.89
2023-04-07T10:23:49.298Z,22.36
2023-04-07T10:26:19.783Z,22.13
2023-04-07T10:28:51.429Z,22.26
2023-04-07T10:31:18.922Z,22.22
2023-04-07T10:33:48.854Z,22.18
2023-04-07T10:36:16.776Z,21.85
2023-04-07T10:39:08.917Z,21.95
2023-04-07T10:41:38.864Z,21.13
2023-04-07T10:44:06.807Z,20.70
2023-04-07T10:46:45.525Z,20.16
2023-04-07T10:49:18.664Z,19.80
2023-04-07T10:52:11.790Z,18.77
2023-04-07T10:54:42.884Z,18.76
2023-04-07T10:57:11.552Z,18.55
2023-04-07T10:59:40.547Z,18.37
2023-04-07T11:02:13.566Z,17.80
2023-04-07T11:04:42.654Z,17.04
2023-04-07T11:07:09.793Z,16.67
2023-04-07T11:09:36.758Z,16.32
2023-04-07T11:12:04.722Z,16.27
2023-04-07T11:14:33.319Z,16.43
2023-04-07T11:17:03.732Z,16.01
2023-04-07T11:19:32.385Z,15.80
2023-04-07T11:22:28.493Z,15.77
2023-04-07T11:24:56.181Z,15.81
2023-04-07T11:27:23.049Z,15.79
2023-04-07T11:29:50.229Z,15.73
2023-04-07T11:32:26.176Z,15.79
2023-04-07T11:34:53.058Z,15.86
2023-04-07T11:37:23.667Z,15.95
2023-04-07T11:39:58.703Z,15.60
2023-04-07T11:42:39.387Z,15.64
2023-04-07T11:45:16.489Z,15.90
2023-04-07T11:47:43.156Z,16.21
2023-04-07T11:50:10.343Z,16.78
2023-04-07T11:52:48.597Z,17.92
2023-04-07T11:55:24.496Z,19.72
2023-04-07T11:57:52.121Z,21.54
2023-04-07T12:00:19.912Z,22.89
2023-04-07T12:02:46.926Z,23.27
2023-04-07T12:05:13.930Z,24.41
2023-04-07T12:07:41.982Z,25.11
2023-04-07T12:10:27.456Z,25.32
2023-04-07T12:12:54.113Z,24.37
2023-04-07T12:15:21.101Z,23.54
2023-04-07T12:17:48.713Z,23.35
2023-04-07T12:20:16.511Z,23.06
2023-04-07T12:22:43.212Z,22.48
2023-04-07T12:25:09.881Z,22.84
2023-04-07T12:27:43.313Z,23.82
2023-04-07T12:30:11.470Z,23.53
2023-04-07T12:32:38.421Z,24.18
2023-04-07T12:35:06.523Z,25.34
2023-04-07T12:37:33.376Z,25.99
2023-04-07T12:40:00.684Z,26.30
2023-04-07T12:42:27.968Z,27.88
2023-04-07T12:44:54.946Z,27.67
2023-04-07T12:47:21.981Z,28.46
2023-04-07T12:49:49.895Z,27.36
2023-04-07T12:52:17.127Z,27.98
2023-04-07T12:54:45.218Z,27.79
2023-04-07T12:57:12.075Z,28.27
2023-04-07T12:59:38.676Z,28.98
2023-04-07T13:02:05.302Z,28.92
2023-04-07T13:04:32.255Z,28.64
2023-04-07T13:06:59.571Z,28.56
2023-04-07T13:09:26.362Z,28.93
2023-04-07T13:11:53.005Z,28.45
2023-04-07T13:14:19.632Z,28.54
2023-04-07T13:16:46.260Z,28.48
2023-04-07T13:19:14.213Z,29.60
2023-04-07T13:21:46.632Z,28.99
2023-04-07T13:24:14.296Z,28.47
2023-04-07T13:26:40.916Z,29.83
2023-04-07T13:29:07.549Z,28.72
2023-04-07T13:31:34.269Z,29.04
2023-04-07T13:34:01.044Z,29.42
2023-04-07T13:36:28.359Z,28.58
2023-04-07T13:38:55.030Z,29.66
2023-04-07T13:41:21.807Z,29.08
2023-04-07T13:43:49.267Z,29.93
2023-04-07T13:46:27.191Z,24.12
2023-04-07T13:48:55.321Z,22.10
2023-04-07T13:51:22.184Z,21.00
2023-04-07T13:53:49.161Z,22.99
2023-04-07T13:56:15.861Z,22.88
2023-04-07T13:58:42.599Z,20.70
2023-04-07T14:01:09.333Z,20.63
2023-04-07T14:03:36.145Z,20.77
2023-04-07T14:06:02.909Z,19.39
2023-04-07T14:08:29.665Z,20.25
2023-04-07T14:10:56.346Z,21.45
2023-04-07T14:13:23.068Z,20.58
2023-04-07T14:15:50.105Z,19.84
2023-04-07T14:18:17.495Z,18.48
2023-04-07T14:20:44.737Z,20.26
2023-04-07T14:23:11.756Z,19.93
2023-04-07T14:25:38.425Z,20.80
2023-04-07T14:28:08.314Z,20.83
2023-04-07T14:30:41.263Z,22.97
2023-04-07T14:33:08.299Z,21.61
2023-04-07T14:35:36.931Z,22.06
2023-04-07T14:38:03.755Z,20.59
2023-04-07T14:40:31.018Z,19.71
2023-04-07T14:45:28.846Z,18.46
2023-04-07T14:47:55.856Z,18.45
2023-04-07T14:50:23.802Z,19.03
2023-04-07T14:52:50.672Z,20.76
2023-04-07T14:55:18.275Z,20.19
2023-04-07T14:57:45.077Z,20.60
2023-04-07T15:00:12.296Z,20.06
2023-04-07T15:02:39.743Z,18.57
2023-04-07T15:05:07.619Z,17.61
2023-04-07T15:07:34.312Z,17.33
2023-04-07T15:10:01.048Z,17.13
2023-04-07T15:12:29.768Z,16.82
2023-04-07T15:14:56.544Z,16.04
2023-04-07T15:17:33.091Z,15.11
2023-04-07T15:20:07.550Z,14.64
2023-04-07T15:22:35.742Z,15.02
2023-04-07T15:25:03.586Z,14.90
2023-04-07T15:27:30.262Z,14.73
2023-04-07T15:29:56.990Z,14.72
2023-04-07T15:32:23.581Z,14.48
2023-04-07T15:34:50.276Z,14.44
2023-04-07T15:37:19.846Z,14.57
2023-04-07T15:39:46.502Z,14.76
2023-04-07T15:42:13.346Z,14.90
2023-04-07T15:44:40.472Z,14.91
2023-04-07T15:47:07.310Z,14.75
2023-04-07T15:49:37.161Z,14.63
2023-04-07T15:52:12.005Z,14.66
2023-04-07T15:54:38.845Z,14.32
2023-04-07T15:57:05.622Z,14.05
2023-04-07T15:59:32.265Z,14.06
2023-04-07T16:01:59.131Z,14.16
2023-04-07T16:04:25.939Z,14.29
2023-04-07T16:06:52.549Z,14.23
2023-04-07T16:09:19.217Z,13.84
2023-04-07T16:11:45.759Z,13.85
2023-04-07T16:14:12.325Z,13.76
2023-04-07T16:16:41.291Z,13.72
2023-04-07T16:19:08.274Z,13.76
2023-04-07T16:21:35.325Z,13.72
2023-04-07T16:24:01.996Z,13.73
2023-04-07T16:26:28.534Z,13.60
2023-04-07T16:28:55.203Z,13.73
2023-04-07T16:31:21.819Z,13.51
2023-04-07T16:33:50.713Z,13.24
2023-04-07T16:36:17.396Z,13.36
2023-04-07T16:38:44.051Z,13.42
2023-04-07T16:41:10.957Z,13.27
2023-04-07T16:43:37.767Z,13.24
2023-04-07T16:46:06.123Z,13.14
2023-04-07T16:48:33.092Z,13.12
2023-04-07T16:50:59.771Z,13.28
2023-04-07T16:53:26.695Z,13.07
2023-04-07T16:55:53.661Z,13.08
2023-04-07T16:58:20.371Z,13.13
2023-04-07T17:00:46.980Z,13.15
2023-04-07T17:03:15.458Z,12.87
2023-04-07T17:05:44.531Z,13.00
2023-04-07T17:08:11.744Z,12.91
2023-04-07T17:10:38.345Z,12.65
2023-04-07T17:13:05.038Z,12.81
2023-04-07T17:15:35.081Z,12.51
2023-04-07T17:18:01.884Z,12.69
2023-04-07T17:20:28.550Z,12.67
2023-04-07T17:22:55.189Z,12.64
2023-04-07T17:25:21.801Z,12.59
2023-04-07T17:28:02.337Z,12.30
2023-04-07T17:30:28.967Z,12.46
2023-04-07T17:32:55.564Z,12.48
2023-04-07T17:35:22.821Z,12.37
2023-04-07T17:37:50.705Z,12.22
2023-04-07T17:40:17.648Z,12.38
2023-04-07T17:42:44.622Z,12.39
2023-04-07T17:45:11.817Z,12.18
2023-04-07T17:47:38.846Z,12.31
2023-04-07T17:50:06.239Z,12.19
2023-04-07T17:52:33.030Z,11.99
2023-04-07T17:55:01.031Z,11.89
2023-04-07T17:57:27.821Z,11.87
2023-04-07T17:59:54.479Z,11.65
2023-04-07T18:02:21.617Z,11.60
2023-04-07T18:04:48.556Z,11.48
2023-04-07T18:07:15.356Z,11.51
2023-04-07T18:09:42.988Z,11.39
2023-04-07T18:12:09.801Z,11.34
2023-04-07T18:14:36.671Z,11.32
2023-04-07T18:17:03.363Z,11.17
2023-04-07T18:19:30.190Z,11.24
2023-04-07T18:21:56.759Z,11.17
2023-04-07T18:24:23.450Z,11.13
2023-04-07T18:26:50.070Z,11.08
2023-04-07T18:29:16.819Z,11.03
2023-04-07T18:31:43.563Z,10.93
2023-04-07T18:34:11.308Z,10.90
2023-04-07T18:36:38.131Z,11.00
2023-04-07T18:39:04.938Z,10.94
2023-04-07T18:41:31.797Z,11.08
2023-04-07T18:43:58.632Z,11.09
2023-04-07T18:46:25.354Z,11.16
2023-04-07T18:48:52.009Z,11.09
2023-04-07T18:51:18.690Z,11.13
2023-04-07T18:53:45.438Z,11.23
2023-04-07T18:56:12.048Z,11.16
2023-04-07T18:58:43.811Z,11.17
2023-04-07T19:01:11.853Z,10.93
2023-04-07T19:03:39.745Z,10.72
2023-04-07T19:06:06.519Z,10.43
2023-04-07T19:08:33.673Z,10.29
2023-04-07T19:11:00.425Z,10.52
2023-04-07T19:13:27.730Z,10.23
2023-04-07T19:15:54.609Z,10.22
2023-04-07T19:18:21.185Z,10.17
2023-04-07T19:20:47.786Z,10.19
2023-04-07T19:23:17.215Z,10.34
2023-04-07T19:25:45.692Z,10.43
2023-04-07T19:28:13.041Z,10.56
2023-04-07T19:30:39.918Z,10.65
2023-04-07T19:33:06.709Z,10.74
2023-04-07T19:35:33.994Z,10.80
2023-04-07T19:38:00.683Z,10.87
2023-04-07T19:40:27.505Z,10.88
2023-04-07T19:42:56.044Z,10.95
2023-04-07T19:45:22.718Z,10.58
2023-04-07T19:47:49.572Z,10.73
2023-04-07T19:50:17.536Z,10.39
2023-04-07T19:52:45.463Z,10.38
2023-04-07T19:55:13.544Z,10.34
2023-04-07T19:57:43.142Z,10.29
2023-04-07T20:00:10.799Z,10.13
2023-04-07T20:02:47.554Z,10.51
2023-04-07T20:05:14.438Z,10.57
2023-04-07T20:07:41.119Z,10.64
2023-04-07T20:10:08.407Z,10.70
2023-04-07T20:12:35.270Z,10.76
2023-04-07T20:15:03.188Z,10.74
2023-04-07T20:17:32.428Z,10.72
2023-04-07T20:19:59.727Z,10.72
2023-04-07T20:22:26.487Z,10.68
2023-04-07T20:24:53.155Z,10.65
2023-04-07T20:27:19.778Z,10.65
2023-04-07T20:29:46.388Z,10.74
2023-04-07T20:32:12.999Z,10.68
2023-04-07T20:34:39.744Z,10.64
2023-04-07T20:37:06.490Z,10.63
2023-04-07T20:39:33.081Z,10.48
2023-04-07T20:41:59.720Z,10.63
2023-04-07T20:44:28.082Z,10.55
2023-04-07T20:46:54.902Z,10.52
2023-04-07T20:49:21.634Z,10.46
2023-04-07T20:51:48.277Z,10.43
2023-04-07T20:54:15.188Z,10.43
2023-04-07T20:56:42.969Z,10.32
2023-04-07T20:59:09.434Z,10.29
2023-04-07T21:01:36.528Z,10.26
2023-04-07T21:04:06.389Z,10.36
2023-04-07T21:06:33.306Z,10.22
2023-04-07T21:08:59.916Z,10.00
2023-04-07T21:11:27.456Z,10.13
2023-04-07T21:13:54.064Z,10.17
2023-04-07T21:16:20.747Z,10.30
2023-04-07T21:18:47.465Z,10.30
2023-04-07T21:21:14.380Z,10.44
2023-04-07T21:23:41.167Z,10.41
2023-04-07T21:26:08.345Z,10.50
2023-04-07T21:28:34.918Z,10.51
2023-04-07T21:31:01.692Z,10.36
2023-04-07T21:33:28.587Z,10.16
2023-04-07T21:35:55.512Z,10.13
2023-04-07T21:38:22.185Z,10.22
2023-04-07T21:40:48.935Z,10.05
2023-04-07T21:43:15.508Z,10.13
2023-04-07T21:45:42.248Z,10.03
2023-04-07T21:48:08.967Z,10.15
2023-04-07T21:50:36.872Z,10.16
2023-04-07T21:53:03.631Z,10.17
2023-04-07T21:55:30.329Z,10.19
2023-04-07T21:57:57.429Z,10.20
2023-04-07T22:00:24.251Z,10.30
2023-04-07T22:02:51.367Z,10.32
2023-04-07T22:05:18.337Z,10.34
2023-04-07T22:07:45.757Z,10.35
2023-04-07T22:10:13.062Z,10.43
2023-04-07T22:12:39.989Z,10.47
2023-04-07T22:15:08.248Z,10.32
2023-04-07T22:17:35.634Z,10.14
2023-04-07T22:20:02.615Z,10.20
2023-04-07T22:22:29.268Z,10.06
2023-04-07T22:24:56.089Z,10.14
2023-04-07T22:27:22.651Z,9.93
2023-04-07T22:29:49.308Z,9.88
2023-04-07T22:32:16.050Z,9.90
2023-04-07T22:34:44.530Z,9.84
2023-04-07T22:37:11.282Z,9.91
2023-04-07T22:39:38.083Z,9.90
2023-04-07T22:42:04.787Z,9.94
2023-04-07T22:44:31.591Z,9.90
2023-04-07T22:46:58.416Z,9.92
2023-04-07T22:49:25.509Z,9.86
2023-04-07T22:51:52.268Z,9.92
2023-04-07T22:54:18.969Z,9.91
2023-04-07T22:56:45.868Z,9.94
2023-04-07T22:59:12.511Z,9.97
2023-04-07T23:01:39.263Z,9.92
2023-04-07T23:04:06.019Z,9.87
2023-04-07T23:06:33.426Z,9.88
2023-04-07T23:09:00.381Z,9.78
2023-04-07T23:11:27.005Z,9.90
2023-04-07T23:13:53.686Z,9.86
2023-04-07T23:16:20.489Z,9.90
2023-04-07T23:18:47.316Z,9.82
2023-04-07T23:21:13.980Z,9.77
2023-04-07T23:23:40.647Z,9.73
2023-04-07T23:26:07.280Z,9.77
2023-04-07T23:28:33.895Z,9.56
2023-04-07T23:31:02.126Z,9.50
2023-04-07T23:33:31.698Z,9.35
2023-04-07T23:35:58.737Z,9.34
2023-04-07T23:38:26.032Z,9.28
2023-04-07T23:40:53.119Z,9.27
2023-04-07T23:43:19.731Z,9.24
2023-04-07T23:45:46.512Z,9.18
2023-04-07T23:48:13.124Z,8.95
2023-04-07T23:50:39.945Z,8.87
2023-04-07T23:53:06.595Z,8.98
2023-04-07T23:55:33.310Z,8.94
2023-04-07T23:57:59.865Z,8.85
